sensor_id;sensor_type;location;lat;lon;timestamp;pressure;altitude;pressure_sealevel;temperature;humidity
2405;BME280;1213;43.206;27.922;2022-07-29T00:01:47;101380.00;;;22.40;100.00
2405;BME280;1213;43.206;27.922;2022-07-29T00:04:13;101373.97;;;22.38;100.00
2405;BME280;1213;43.206;27.922;2022-07-29T00:06:38;101370.94;;;22.33;100.00
2405;BME280;1213;43.206;27.922;2022-07-29T00:09:04;101369.09;;;22.34;100.00
2405;BME280;1213;43.206;27.922;2022-07-29T00:11:30;101365.41;;;22.35;100.00
2405;BME280;1213;43.206;27.922;2022-07-29T00:13:55;101370.91;;;22.25;100.00
2405;BME280;1213;43.206;27.922;2022-07-29T00:16:21;101365.56;;;22.25;100.00
2405;BME280;1213;43.206;27.922;2022-07-29T00:18:47;101360.53;;;22.22;100.00
2405;BME280;1213;43.206;27.922;2022-07-29T00:21:12;101365.38;;;22.19;100.00
2405;BME280;1213;43.206;27.922;2022-07-29T00:23:38;101367.03;;;22.20;100.00
2405;BME280;1213;43.206;27.922;2022-07-29T00:26:03;101373.94;;;22.22;100.00
2405;BME280;1213;43.206;27.922;2022-07-29T00:28:29;101368.72;;;22.21;100.00
2405;BME280;1213;43.206;27.922;2022-07-29T00:30:54;101373.41;;;22.19;100.00
2405;BME280;1213;43.206;27.922;2022-07-29T00:33:20;101372.56;;;22.18;100.00
2405;BME280;1213;43.206;27.922;2022-07-29T00:35:47;101371.75;;;22.26;100.00
2405;BME280;1213;43.206;27.922;2022-07-29T00:38:18;101370.56;;;22.28;100.00
2405;BME280;1213;43.206;27.922;2022-07-29T00:40:44;101370.53;;;22.12;100.00
2405;BME280;1213;43.206;27.922;2022-07-29T00:43:10;101365.50;;;22.09;100.00
2405;BME280;1213;43.206;27.922;2022-07-29T00:45:36;101374.38;;;22.09;100.00
2405;BME280;1213;43.206;27.922;2022-07-29T00:48:03;101361.66;;;22.11;100.00
2405;BME280;1213;43.206;27.922;2022-07-29T00:50:30;101361.66;;;22.11;100.00
2405;BME280;1213;43.206;27.922;2022-07-29T00:52:56;101364.28;;;22.03;100.00
2405;BME280;1213;43.206;27.922;2022-07-29T00:55:22;101362.44;;;22.04;100.00
2405;BME280;1213;43.206;27.922;2022-07-29T00:57:48;101355.81;;;22.08;100.00
2405;BME280;1213;43.206;27.922;2022-07-29T01:00:20;101360.56;;;21.96;100.00
2405;BME280;1213;43.206;27.922;2022-07-29T01:02:47;101365.63;;;21.99;100.00
2405;BME280;1213;43.206;27.922;2022-07-29T01:05:14;101353.91;;;22.00;100.00
2405;BME280;1213;43.206;27.922;2022-07-29T01:07:39;101356.72;;;21.99;100.00
2405;BME280;1213;43.206;27.922;2022-07-29T01:10:08;101366.59;;;21.98;100.00
2405;BME280;1213;43.206;27.922;2022-07-29T01:12:35;101357.72;;;21.98;100.00
2405;BME280;1213;43.206;27.922;2022-07-29T01:15:04;101356.41;;;22.02;100.00
2405;BME280;1213;43.206;27.922;2022-07-29T01:27:03;101350.69;;;21.97;100.00
2405;BME280;1213;43.206;27.922;2022-07-29T01:29:36;101353.31;;;21.80;100.00
2405;BME280;1213;43.206;27.922;2022-07-29T01:32:19;101358.03;;;21.86;100.00
2405;BME280;1213;43.206;27.922;2022-07-29T01:35:03;101350.00;;;21.86;100.00
2405;BME280;1213;43.206;27.922;2022-07-29T01:37:36;101358.88;;;21.87;100.00
2405;BME280;1213;43.206;27.922;2022-07-29T01:40:04;101347.50;;;21.85;100.00
2405;BME280;1213;43.206;27.922;2022-07-29T01:42:38;101359.34;;;21.82;100.00
2405;BME280;1213;43.206;27.922;2022-07-29T01:46:07;101357.25;;;21.68;100.00
2405;BME280;1213;43.206;27.922;2022-07-29T01:48:24;101357.22;;;21.60;100.00
2405;BME280;1213;43.206;27.922;2022-07-29T01:51:02;101355.53;;;21.59;100.00
2405;BME280;1213;43.206;27.922;2022-07-29T01:53:33;101363.22;;;21.54;100.00
2405;BME280;1213;43.206;27.922;2022-07-29T01:56:00;101353.03;;;21.57;100.00
2405;BME280;1213;43.206;27.922;2022-07-29T01:58:28;101346.66;;;21.50;100.00
2405;BME280;1213;43.206;27.922;2022-07-29T02:00:57;101349.16;;;21.52;100.00
2405;BME280;1213;43.206;27.922;2022-07-29T02:03:24;101344.63;;;21.52;100.00
2405;BME280;1213;43.206;27.922;2022-07-29T02:05:51;101339.09;;;21.46;100.00
2405;BME280;1213;43.206;27.922;2022-07-29T02:08:19;101345.13;;;21.48;100.00
2405;BME280;1213;43.206;27.922;2022-07-29T02:10:46;101353.78;;;21.42;100.00
2405;BME280;1213;43.206;27.922;2022-07-29T02:13:13;101354.25;;;21.37;100.00
2405;BME280;1213;43.206;27.922;2022-07-29T02:15:42;101355.56;;;21.33;100.00
2405;BME280;1213;43.206;27.922;2022-07-29T02:18:13;101351.22;;;21.32;100.00
2405;BME280;1213;43.206;27.922;2022-07-29T02:20:42;101353.66;;;21.25;100.00
2405;BME280;1213;43.206;27.922;2022-07-29T02:23:10;101345.63;;;21.25;100.00
2405;BME280;1213;43.206;27.922;2022-07-29T02:25:37;101340.59;;;21.22;100.00
2405;BME280;1213;43.206;27.922;2022-07-29T02:28:03;101342.06;;;21.17;100.00
2405;BME280;1213;43.206;27.922;2022-07-29T02:30:30;101342.06;;;21.17;100.00
2405;BME280;1213;43.206;27.922;2022-07-29T02:32:57;101344.88;;;21.15;100.00
2405;BME280;1213;43.206;27.922;2022-07-29T02:35:24;101341.84;;;21.10;100.00
2405;BME280;1213;43.206;27.922;2022-07-29T02:37:50;101346.66;;;21.06;100.00
2405;BME280;1213;43.206;27.922;2022-07-29T02:40:37;101341.31;;;21.06;100.00
2405;BME280;1213;43.206;27.922;2022-07-29T02:43:05;101349.66;;;21.03;100.00
2405;BME280;1213;43.206;27.922;2022-07-29T02:45:32;101359.19;;;21.06;100.00
2405;BME280;1213;43.206;27.922;2022-07-29T02:47:59;101349.75;;;21.20;100.00
2405;BME280;1213;43.206;27.922;2022-07-29T02:50:34;101356.56;;;21.14;100.00
2405;BME280;1213;43.206;27.922;2022-07-29T02:55:56;101362.16;;;21.03;100.00
2405;BME280;1213;43.206;27.922;2022-07-29T02:58:29;101357.81;;;21.02;100.00
2405;BME280;1213;43.206;27.922;2022-07-29T03:01:04;101358.28;;;20.97;100.00
2405;BME280;1213;43.206;27.922;2022-07-29T03:03:36;101361.78;;;20.98;100.00
2405;BME280;1213;43.206;27.922;2022-07-29T03:06:03;101365.97;;;21.00;100.00
2405;BME280;1213;43.206;27.922;2022-07-29T03:08:31;101359.72;;;20.92;100.00
2405;BME280;1213;43.206;27.922;2022-07-29T03:10:57;101371.41;;;20.91;100.00
2405;BME280;1213;43.206;27.922;2022-07-29T03:13:23;101372.47;;;20.98;100.00
2405;BME280;1213;43.206;27.922;2022-07-29T03:15:50;101367.97;;;20.98;100.00
2405;BME280;1213;43.206;27.922;2022-07-29T03:18:16;101373.84;;;21.02;100.00
2405;BME280;1213;43.206;27.922;2022-07-29T03:20:42;101377.66;;;20.99;100.00
2405;BME280;1213;43.206;27.922;2022-07-29T03:23:10;101372.25;;;21.09;100.00
2405;BME280;1213;43.206;27.922;2022-07-29T03:25:36;101381.16;;;21.18;100.00
2405;BME280;1213;43.206;27.922;2022-07-29T03:28:03;101379.69;;;21.23;100.00
2405;BME280;1213;43.206;27.922;2022-07-29T03:30:28;101380.22;;;21.27;100.00
2405;BME280;1213;43.206;27.922;2022-07-29T03:32:55;101375.34;;;21.22;100.00
2405;BME280;1213;43.206;27.922;2022-07-29T03:35:21;101377.16;;;21.22;100.00
2405;BME280;1213;43.206;27.922;2022-07-29T03:37:47;101388.63;;;21.14;100.00
2405;BME280;1213;43.206;27.922;2022-07-29T03:40:37;101384.50;;;21.20;100.00
2405;BME280;1213;43.206;27.922;2022-07-29T03:43:02;101383.06;;;21.25;100.00
2405;BME280;1213;43.206;27.922;2022-07-29T03:45:30;101391.91;;;21.26;100.00
2405;BME280;1213;43.206;27.922;2022-07-29T03:48:06;101392.47;;;21.29;100.00
2405;BME280;1213;43.206;27.922;2022-07-29T03:50:33;101396.13;;;21.28;100.00
2405;BME280;1213;43.206;27.922;2022-07-29T03:52:59;101400.78;;;21.26;100.00
2405;BME280;1213;43.206;27.922;2022-07-29T03:55:26;101403.44;;;21.26;100.00
2405;BME280;1213;43.206;27.922;2022-07-29T03:57:54;101396.34;;;21.35;100.00
2405;BME280;1213;43.206;27.922;2022-07-29T04:00:23;101396.72;;;21.40;100.00
2405;BME280;1213;43.206;27.922;2022-07-29T04:02:49;101402.75;;;21.42;100.00
2405;BME280;1213;43.206;27.922;2022-07-29T04:05:17;101398.41;;;21.41;100.00
2405;BME280;1213;43.206;27.922;2022-07-29T04:07:47;101396.78;;;21.48;100.00
2405;BME280;1213;43.206;27.922;2022-07-29T04:10:13;101397.66;;;21.57;100.00
2405;BME280;1213;43.206;27.922;2022-07-29T04:12:40;101390.16;;;21.60;100.00
2405;BME280;1213;43.206;27.922;2022-07-29T04:15:06;101387.63;;;21.59;100.00
2405;BME280;1213;43.206;27.922;2022-07-29T04:17:32;101394.81;;;21.58;100.00
2405;BME280;1213;43.206;27.922;2022-07-29T04:19:58;101390.03;;;21.62;100.00
2405;BME280;1213;43.206;27.922;2022-07-29T04:22:23;101385.38;;;21.72;100.00
2405;BME280;1213;43.206;27.922;2022-07-29T04:24:48;101384.22;;;21.75;100.00
2405;BME280;1213;43.206;27.922;2022-07-29T04:27:14;101390.94;;;21.79;100.00
2405;BME280;1213;43.206;27.922;2022-07-29T04:29:39;101397.84;;;21.89;100.00
2405;BME280;1213;43.206;27.922;2022-07-29T04:32:05;101388.16;;;21.97;100.00
2405;BME280;1213;43.206;27.922;2022-07-29T04:34:31;101385.09;;;22.09;100.00
2405;BME280;1213;43.206;27.922;2022-07-29T04:36:56;101387.25;;;22.14;100.00
2405;BME280;1213;43.206;27.922;2022-07-29T04:39:22;101385.47;;;22.23;100.00
2405;BME280;1213;43.206;27.922;2022-07-29T04:41:47;101379.31;;;22.30;100.00
2405;BME280;1213;43.206;27.922;2022-07-29T04:44:13;101380.63;;;22.34;100.00
2405;BME280;1213;43.206;27.922;2022-07-29T04:46:38;101376.97;;;22.52;100.00
2405;BME280;1213;43.206;27.922;2022-07-29T04:49:04;101378.84;;;22.59;100.00
2405;BME280;1213;43.206;27.922;2022-07-29T04:51:29;101374.34;;;22.68;100.00
2405;BME280;1213;43.206;27.922;2022-07-29T04:53:55;101374.66;;;22.73;100.00
2405;BME280;1213;43.206;27.922;2022-07-29T04:56:20;101381.75;;;22.82;100.00
2405;BME280;1213;43.206;27.922;2022-07-29T04:58:46;101376.69;;;22.79;100.00
2405;BME280;1213;43.206;27.922;2022-07-29T05:01:11;101379.72;;;22.84;100.00
2405;BME280;1213;43.206;27.922;2022-07-29T05:03:37;101377.06;;;22.92;100.00
2405;BME280;1213;43.206;27.922;2022-07-29T05:06:02;101367.00;;;23.03;100.00
2405;BME280;1213;43.206;27.922;2022-07-29T05:08:28;101363.31;;;23.12;100.00
2405;BME280;1213;43.206;27.922;2022-07-29T05:10:53;101358.94;;;23.27;100.00
2405;BME280;1213;43.206;27.922;2022-07-29T05:13:19;101354.56;;;23.34;100.00
2405;BME280;1213;43.206;27.922;2022-07-29T05:15:44;101358.59;;;23.38;100.00
2405;BME280;1213;43.206;27.922;2022-07-29T05:18:10;101363.94;;;23.46;100.00
2405;BME280;1213;43.206;27.922;2022-07-29T05:20:35;101370.31;;;23.62;100.00
2405;BME280;1213;43.206;27.922;2022-07-29T05:23:01;101367.59;;;23.70;100.00
2405;BME280;1213;43.206;27.922;2022-07-29T05:25:28;101363.22;;;23.77;100.00
2405;BME280;1213;43.206;27.922;2022-07-29T05:27:54;101361.72;;;23.74;100.00
2405;BME280;1213;43.206;27.922;2022-07-29T05:30:20;101359.84;;;23.83;100.00
2405;BME280;1213;43.206;27.922;2022-07-29T05:32:46;101362.84;;;23.88;100.00
2405;BME280;1213;43.206;27.922;2022-07-29T05:35:13;101361.78;;;23.97;100.00
2405;BME280;1213;43.206;27.922;2022-07-29T05:37:39;101360.69;;;24.15;100.00
2405;BME280;1213;43.206;27.922;2022-07-29T05:40:05;101359.09;;;24.28;100.00
2405;BME280;1213;43.206;27.922;2022-07-29T05:42:31;101358.91;;;24.38;100.00
2405;BME280;1213;43.206;27.922;2022-07-29T05:44:57;101346.63;;;24.44;100.00
2405;BME280;1213;43.206;27.922;2022-07-29T05:47:23;101362.25;;;24.40;100.00
2405;BME280;1213;43.206;27.922;2022-07-29T05:49:48;101361.97;;;24.58;100.00
2405;BME280;1213;43.206;27.922;2022-07-29T05:52:14;101354.38;;;24.61;100.00
2405;BME280;1213;43.206;27.922;2022-07-29T05:54:40;101361.00;;;24.74;100.00
2405;BME280;1213;43.206;27.922;2022-07-29T05:57:05;101363.63;;;24.82;100.00
2405;BME280;1213;43.206;27.922;2022-07-29T05:59:35;101364.03;;;24.94;100.00
2405;BME280;1213;43.206;27.922;2022-07-29T06:02:01;101356.06;;;25.00;100.00
2405;BME280;1213;43.206;27.922;2022-07-29T06:04:26;101362.47;;;24.99;100.00
2405;BME280;1213;43.206;27.922;2022-07-29T06:06:52;101355.69;;;25.11;100.00
2405;BME280;1213;43.206;27.922;2022-07-29T06:09:18;101362.38;;;25.30;100.00
2405;BME280;1213;43.206;27.922;2022-07-29T06:11:43;101361.84;;;25.35;100.00
2405;BME280;1213;43.206;27.922;2022-07-29T06:14:09;101359.53;;;25.32;100.00
2405;BME280;1213;43.206;27.922;2022-07-29T06:16:34;101362.97;;;25.40;100.00
2405;BME280;1213;43.206;27.922;2022-07-29T06:19:00;101364.84;;;25.55;100.00
2405;BME280;1213;43.206;27.922;2022-07-29T06:21:25;101362.69;;;25.65;100.00
2405;BME280;1213;43.206;27.922;2022-07-29T06:23:51;101364.34;;;25.66;100.00
2405;BME280;1213;43.206;27.922;2022-07-29T06:26:16;101367.81;;;25.75;100.00
2405;BME280;1213;43.206;27.922;2022-07-29T06:28:42;101363.84;;;25.85;100.00
2405;BME280;1213;43.206;27.922;2022-07-29T06:31:07;101363.34;;;25.96;100.00
2405;BME280;1213;43.206;27.922;2022-07-29T06:33:33;101364.81;;;25.99;100.00
2405;BME280;1213;43.206;27.922;2022-07-29T06:35:58;101366.75;;;26.05;100.00
2405;BME280;1213;43.206;27.922;2022-07-29T06:38:25;101354.69;;;26.01;100.00
2405;BME280;1213;43.206;27.922;2022-07-29T06:40:50;101350.13;;;26.16;100.00
2405;BME280;1213;43.206;27.922;2022-07-29T06:43:37;101355.53;;;26.38;100.00
2405;BME280;1213;43.206;27.922;2022-07-29T06:46:08;101360.19;;;26.44;100.00
2405;BME280;1213;43.206;27.922;2022-07-29T06:48:34;101354.94;;;26.57;100.00
2405;BME280;1213;43.206;27.922;2022-07-29T06:51:02;101360.81;;;26.67;100.00
2405;BME280;1213;43.206;27.922;2022-07-29T06:53:28;101348.50;;;26.79;100.00
2405;BME280;1213;43.206;27.922;2022-07-29T06:55:53;101353.13;;;26.86;100.00
2405;BME280;1213;43.206;27.922;2022-07-29T06:58:19;101350.09;;;26.95;100.00
2405;BME280;1213;43.206;27.922;2022-07-29T07:00:46;101354.44;;;26.96;100.00
2405;BME280;1213;43.206;27.922;2022-07-29T07:03:12;101346.91;;;27.06;100.00
2405;BME280;1213;43.206;27.922;2022-07-29T07:05:38;101341.56;;;27.13;100.00
2405;BME280;1213;43.206;27.922;2022-07-29T07:08:04;101342.56;;;27.12;100.00
2405;BME280;1213;43.206;27.922;2022-07-29T07:10:29;101348.41;;;27.16;100.00
2405;BME280;1213;43.206;27.922;2022-07-29T07:12:55;101359.63;;;27.19;100.00
2405;BME280;1213;43.206;27.922;2022-07-29T07:15:20;101353.41;;;27.19;100.00
2405;BME280;1213;43.206;27.922;2022-07-29T07:17:50;101357.78;;;27.20;100.00
2405;BME280;1213;43.206;27.922;2022-07-29T07:20:16;101356.34;;;27.24;100.00
2405;BME280;1213;43.206;27.922;2022-07-29T07:22:43;101352.28;;;27.34;100.00
2405;BME280;1213;43.206;27.922;2022-07-29T07:25:09;101350.25;;;27.43;100.00
2405;BME280;1213;43.206;27.922;2022-07-29T07:27:35;101356.34;;;27.52;100.00
2405;BME280;1213;43.206;27.922;2022-07-29T07:30:01;101363.22;;;27.54;100.00
2405;BME280;1213;43.206;27.922;2022-07-29T07:32:27;101367.31;;;27.50;100.00
2405;BME280;1213;43.206;27.922;2022-07-29T07:34:52;101359.91;;;27.59;100.00
2405;BME280;1213;43.206;27.922;2022-07-29T07:37:18;101361.59;;;27.60;100.00
2405;BME280;1213;43.206;27.922;2022-07-29T07:39:46;101365.75;;;27.62;100.00
2405;BME280;1213;43.206;27.922;2022-07-29T07:42:11;101367.31;;;27.50;100.00
2405;BME280;1213;43.206;27.922;2022-07-29T07:44:38;101361.34;;;27.55;100.00
2405;BME280;1213;43.206;27.922;2022-07-29T07:47:05;101369.03;;;27.58;100.00
2405;BME280;1213;43.206;27.922;2022-07-29T07:49:30;101370.31;;;27.62;100.00
2405;BME280;1213;43.206;27.922;2022-07-29T07:51:56;101363.13;;;27.69;100.00
2405;BME280;1213;43.206;27.922;2022-07-29T07:54:21;101364.56;;;27.72;100.00
2405;BME280;1213;43.206;27.922;2022-07-29T07:56:47;101359.38;;;27.70;100.00
2405;BME280;1213;43.206;27.922;2022-07-29T07:59:15;101362.13;;;27.77;100.00
2405;BME280;1213;43.206;27.922;2022-07-29T08:01:41;101355.91;;;27.83;100.00
2405;BME280;1213;43.206;27.922;2022-07-29T08:04:06;101360.31;;;27.90;100.00
2405;BME280;1213;43.206;27.922;2022-07-29T08:06:33;101364.50;;;28.00;100.00
2405;BME280;1213;43.206;27.922;2022-07-29T08:09:00;101361.03;;;28.12;100.00
2405;BME280;1213;43.206;27.922;2022-07-29T08:11:26;101359.34;;;28.18;100.00
2405;BME280;1213;43.206;27.922;2022-07-29T08:13:51;101364.38;;;28.21;100.00
2405;BME280;1213;43.206;27.922;2022-07-29T08:16:17;101355.84;;;28.24;100.00
2405;BME280;1213;43.206;27.922;2022-07-29T08:18:44;101365.06;;;28.30;100.00
2405;BME280;1213;43.206;27.922;2022-07-29T08:21:10;101368.16;;;28.33;100.00
2405;BME280;1213;43.206;27.922;2022-07-29T08:23:35;101359.66;;;28.36;100.00
2405;BME280;1213;43.206;27.922;2022-07-29T08:26:06;101364.66;;;28.39;100.00
2405;BME280;1213;43.206;27.922;2022-07-29T08:28:42;101355.91;;;28.37;100.00
2405;BME280;1213;43.206;27.922;2022-07-29T08:31:11;101353.84;;;28.39;100.00
2405;BME280;1213;43.206;27.922;2022-07-29T08:33:37;101361.97;;;28.46;100.00
2405;BME280;1213;43.206;27.922;2022-07-29T08:36:04;101358.47;;;28.59;100.00
2405;BME280;1213;43.206;27.922;2022-07-29T08:38:30;101356.38;;;28.67;100.00
2405;BME280;1213;43.206;27.922;2022-07-29T08:40:55;101354.94;;;28.78;100.00
2405;BME280;1213;43.206;27.922;2022-07-29T08:43:21;101345.38;;;28.82;100.00
2405;BME280;1213;43.206;27.922;2022-07-29T08:45:50;101349.75;;;28.90;100.00
2405;BME280;1213;43.206;27.922;2022-07-29T08:48:18;101345.81;;;29.06;100.00
2405;BME280;1213;43.206;27.922;2022-07-29T08:50:44;101354.13;;;29.04;100.00
2405;BME280;1213;43.206;27.922;2022-07-29T08:53:13;101347.03;;;29.16;100.00
2405;BME280;1213;43.206;27.922;2022-07-29T08:55:40;101345.16;;;29.23;100.00
2405;BME280;1213;43.206;27.922;2022-07-29T08:58:08;101340.38;;;29.19;100.00
2405;BME280;1213;43.206;27.922;2022-07-29T09:00:36;101338.50;;;29.33;100.00
2405;BME280;1213;43.206;27.922;2022-07-29T09:03:04;101339.94;;;29.42;100.00
2405;BME280;1213;43.206;27.922;2022-07-29T09:05:31;101346.16;;;29.42;100.00
2405;BME280;1213;43.206;27.922;2022-07-29T09:07:57;101338.25;;;29.41;100.00
2405;BME280;1213;43.206;27.922;2022-07-29T09:10:23;101335.94;;;29.58;100.00
2405;BME280;1213;43.206;27.922;2022-07-29T09:12:48;101332.19;;;29.65;100.00
2405;BME280;1213;43.206;27.922;2022-07-29T09:15:14;101338.63;;;29.71;100.00
2405;BME280;1213;43.206;27.922;2022-07-29T09:17:47;101338.22;;;29.67;100.00
2405;BME280;1213;43.206;27.922;2022-07-29T09:20:16;101339.66;;;29.70;100.00
2405;BME280;1213;43.206;27.922;2022-07-29T09:22:42;101336.53;;;29.66;100.00
2405;BME280;1213;43.206;27.922;2022-07-29T09:25:08;101331.31;;;29.71;100.00
2405;BME280;1213;43.206;27.922;2022-07-29T09:27:34;101327.94;;;29.76;100.00
2405;BME280;1213;43.206;27.922;2022-07-29T09:30:05;101323.19;;;29.78;100.00
2405;BME280;1213;43.206;27.922;2022-07-29T09:32:33;101326.06;;;29.76;100.00
2405;BME280;1213;43.206;27.922;2022-07-29T09:35:20;101331.09;;;29.73;100.00
2405;BME280;1213;43.206;27.922;2022-07-29T09:37:46;101332.97;;;29.79;100.00
2405;BME280;1213;43.206;27.922;2022-07-29T09:40:17;101324.00;;;29.78;100.00
2405;BME280;1213;43.206;27.922;2022-07-29T09:42:44;101331.50;;;29.70;100.00
2405;BME280;1213;43.206;27.922;2022-07-29T09:45:10;101336.94;;;29.70;100.00
2405;BME280;1213;43.206;27.922;2022-07-29T09:47:44;101333.38;;;29.76;100.00
2405;BME280;1213;43.206;27.922;2022-07-29T09:50:10;101333.78;;;29.79;100.00
2405;BME280;1213;43.206;27.922;2022-07-29T09:52:50;101327.91;;;29.89;100.00
2405;BME280;1213;43.206;27.922;2022-07-29T09:55:17;101326.88;;;29.83;100.00
2405;BME280;1213;43.206;27.922;2022-07-29T09:57:43;101333.34;;;29.82;100.00
2405;BME280;1213;43.206;27.922;2022-07-29T10:00:16;101333.41;;;29.69;100.00
2405;BME280;1213;43.206;27.922;2022-07-29T10:02:44;101323.44;;;29.63;100.00
2405;BME280;1213;43.206;27.922;2022-07-29T10:05:22;101334.00;;;29.78;100.00
2405;BME280;1213;43.206;27.922;2022-07-29T10:10:27;101335.59;;;29.92;100.00
2405;BME280;1213;43.206;27.922;2022-07-29T10:12:58;101322.22;;;29.97;100.00
2405;BME280;1213;43.206;27.922;2022-07-29T10:15:25;101329.50;;;30.10;100.00
2405;BME280;1213;43.206;27.922;2022-07-29T10:17:52;101325.28;;;30.07;100.00
2405;BME280;1213;43.206;27.922;2022-07-29T10:20:20;101327.84;;;30.09;100.00
2405;BME280;1213;43.206;27.922;2022-07-29T10:22:47;101331.75;;;30.20;100.00
2405;BME280;1213;43.206;27.922;2022-07-29T10:25:14;101330.00;;;30.32;100.00
2405;BME280;1213;43.206;27.922;2022-07-29T10:27:39;101335.84;;;30.29;100.00
2405;BME280;1213;43.206;27.922;2022-07-29T10:30:06;101326.88;;;30.60;100.00
2405;BME280;1213;43.206;27.922;2022-07-29T10:44:17;101317.75;;;31.29;100.00
2405;BME280;1213;43.206;27.922;2022-07-29T10:46:43;101312.44;;;31.16;100.00
2405;BME280;1213;43.206;27.922;2022-07-29T10:49:20;101320.00;;;30.89;100.00
2405;BME280;1213;43.206;27.922;2022-07-29T10:52:08;101319.22;;;30.82;100.00
2405;BME280;1213;43.206;27.922;2022-07-29T11:07:29;101316.22;;;30.90;100.00
2405;BME280;1213;43.206;27.922;2022-07-29T11:15:05;101317.78;;;30.79;100.00
2405;BME280;1213;43.206;27.922;2022-07-29T11:20:38;101319.34;;;30.69;100.00
2405;BME280;1213;43.206;27.922;2022-07-29T11:23:26;101314.75;;;30.62;100.00
2405;BME280;1213;43.206;27.922;2022-07-29T11:28:42;101305.56;;;30.63;100.00
2405;BME280;1213;43.206;27.922;2022-07-29T11:31:16;101299.00;;;30.78;100.00
2405;BME280;1213;43.206;27.922;2022-07-29T11:33:44;101304.81;;;30.81;100.00
2405;BME280;1213;43.206;27.922;2022-07-29T11:36:14;101296.91;;;30.80;100.00
2405;BME280;1213;43.206;27.922;2022-07-29T11:38:40;101304.53;;;30.89;100.00
2405;BME280;1213;43.206;27.922;2022-07-29T11:43:57;101301.53;;;30.98;100.00
2405;BME280;1213;43.206;27.922;2022-07-29T11:49:25;101292.50;;;31.04;100.00
2405;BME280;1213;43.206;27.922;2022-07-29T11:51:56;101289.75;;;30.85;100.00
2405;BME280;1213;43.206;27.922;2022-07-29T11:54:30;101287.47;;;30.82;100.00
2405;BME280;1213;43.206;27.922;2022-07-29T11:56:57;101291.88;;;31.02;100.00
2405;BME280;1213;43.206;27.922;2022-07-29T11:59:25;101274.31;;;31.04;100.00
2405;BME280;1213;43.206;27.922;2022-07-29T12:01:53;101276.78;;;31.06;100.00
2405;BME280;1213;43.206;27.922;2022-07-29T12:04:19;101285.16;;;31.04;100.00
2405;BME280;1213;43.206;27.922;2022-07-29T12:06:54;101274.47;;;31.09;100.00
2405;BME280;1213;43.206;27.922;2022-07-29T12:09:20;101275.91;;;31.12;100.00
2405;BME280;1213;43.206;27.922;2022-07-29T12:11:47;101273.72;;;31.20;100.00
2405;BME280;1213;43.206;27.922;2022-07-29T12:14:32;101267.41;;;31.27;100.00
2405;BME280;1213;43.206;27.922;2022-07-29T12:16:58;101263.56;;;31.34;100.00
2405;BME280;1213;43.206;27.922;2022-07-29T12:19:25;101264.59;;;31.15;100.00
2405;BME280;1213;43.206;27.922;2022-07-29T12:21:52;101260.25;;;30.89;100.00
2405;BME280;1213;43.206;27.922;2022-07-29T12:24:18;101263.91;;;31.01;100.00
2405;BME280;1213;43.206;27.922;2022-07-29T12:26:58;101262.72;;;31.15;100.00
2405;BME280;1213;43.206;27.922;2022-07-29T12:29:25;101256.56;;;31.27;100.00
2405;BME280;1213;43.206;27.922;2022-07-29T12:31:55;101251.34;;;31.25;100.00
2405;BME280;1213;43.206;27.922;2022-07-29T12:34:23;101245.69;;;31.27;100.00
2405;BME280;1213;43.206;27.922;2022-07-29T12:36:51;101256.06;;;31.11;100.00
2405;BME280;1213;43.206;27.922;2022-07-29T12:39:17;101245.91;;;31.25;100.00
2405;BME280;1213;43.206;27.922;2022-07-29T12:41:43;101241.91;;;31.28;100.00
2405;BME280;1213;43.206;27.922;2022-07-29T12:44:09;101241.47;;;31.31;100.00
2405;BME280;1213;43.206;27.922;2022-07-29T12:46:35;101239.75;;;31.36;100.00
2405;BME280;1213;43.206;27.922;2022-07-29T12:49:00;101239.75;;;31.36;100.00
2405;BME280;1213;43.206;27.922;2022-07-29T12:51:39;101240.25;;;31.27;100.00
2405;BME280;1213;43.206;27.922;2022-07-29T12:54:12;101239.28;;;31.39;100.00
2405;BME280;1213;43.206;27.922;2022-07-29T12:56:42;101231.16;;;31.51;100.00
2405;BME280;1213;43.206;27.922;2022-07-29T12:59:21;101230.72;;;31.54;100.00
2405;BME280;1213;43.206;27.922;2022-07-29T13:01:49;101228.09;;;31.47;100.00
2405;BME280;1213;43.206;27.922;2022-07-29T13:04:32;101227.03;;;31.48;100.00
2405;BME280;1213;43.206;27.922;2022-07-29T13:07:02;101228.75;;;31.43;100.00
2405;BME280;1213;43.206;27.922;2022-07-29T13:09:41;101230.25;;;31.57;100.00
2405;BME280;1213;43.206;27.922;2022-07-29T13:12:09;101232.63;;;31.54;100.00
2405;BME280;1213;43.206;27.922;2022-07-29T13:14:37;101231.28;;;31.44;100.00
2405;BME280;1213;43.206;27.922;2022-07-29T13:17:29;101231.09;;;31.58;100.00
2405;BME280;1213;43.206;27.922;2022-07-29T13:20:06;101240.44;;;31.62;100.00
2405;BME280;1213;43.206;27.922;2022-07-29T13:22:33;101233.28;;;31.67;100.00
2405;BME280;1213;43.206;27.922;2022-07-29T13:25:01;101234.50;;;31.53;100.00
2405;BME280;1213;43.206;27.922;2022-07-29T13:27:33;101238.72;;;31.49;100.00
2405;BME280;1213;43.206;27.922;2022-07-29T13:30:00;101231.16;;;31.51;100.00
2405;BME280;1213;43.206;27.922;2022-07-29T13:32:29;101229.81;;;31.60;100.00
2405;BME280;1213;43.206;27.922;2022-07-29T13:34:59;101224.97;;;31.62;100.00
2405;BME280;1213;43.206;27.922;2022-07-29T13:37:25;101228.50;;;31.63;100.00
2405;BME280;1213;43.206;27.922;2022-07-29T13:39:51;101225.28;;;31.54;100.00
2405;BME280;1213;43.206;27.922;2022-07-29T13:42:18;101227.94;;;31.61;100.00
2405;BME280;1213;43.206;27.922;2022-07-29T13:44:43;101222.09;;;31.57;100.00
2405;BME280;1213;43.206;27.922;2022-07-29T13:47:09;101223.16;;;31.56;100.00
2405;BME280;1213;43.206;27.922;2022-07-29T13:49:34;101225.25;;;31.72;100.00
2405;BME280;1213;43.206;27.922;2022-07-29T13:52:00;101229.78;;;31.79;100.00